createdAt,value
2023-03-22T00:01:11.734Z,7.47
2023-03-22T00:04:15.651Z,7.47
2023-03-22T00:07:19.414Z,7.47
2023-03-22T00:10:25.660Z,7.47
2023-03-22T00:13:29.764Z,7.50
2023-03-22T00:16:34.555Z,7.51
2023-03-22T00:19:42.134Z,7.51
2023-03-22T00:22:46.197Z,7.53
2023-03-22T00:25:51.790Z,7.54
2023-03-22T00:28:55.664Z,7.54
2023-03-22T00:31:59.331Z,7.54
2023-03-22T00:35:03.661Z,7.53
2023-03-22T00:38:14.080Z,7.52
2023-03-22T00:41:23.555Z,7.51
2023-03-22T00:44:27.417Z,7.50
2023-03-22T00:47:31.834Z,7.50
2023-03-22T00:50:35.868Z,7.46
2023-03-22T00:53:43.003Z,7.44
2023-03-22T00:56:50.384Z,7.42
2023-03-22T00:59:55.987Z,7.39
2023-03-22T01:03:04.775Z,7.32
2023-03-22T01:06:11.185Z,7.24
2023-03-22T01:09:15.432Z,7.14
2023-03-22T01:12:21.958Z,7.00
2023-03-22T01:15:26.007Z,6.85
2023-03-22T01:18:30.374Z,6.73
2023-03-22T01:21:34.323Z,6.66
2023-03-22T01:24:38.181Z,6.58
2023-03-22T01:27:43.394Z,6.42
2023-03-22T01:30:47.417Z,6.25
2023-03-22T01:33:51.418Z,6.16
2023-03-22T01:36:55.637Z,6.07
2023-03-22T01:40:00.584Z,6.05
2023-03-22T01:43:16.078Z,6.01
2023-03-22T01:46:20.917Z,5.96
2023-03-22T01:49:32.116Z,6.00
2023-03-22T01:52:38.889Z,6.11
2023-03-22T01:55:48.987Z,6.24
2023-03-22T01:59:02.855Z,6.39
2023-03-22T02:02:22.377Z,6.49
2023-03-22T02:05:35.754Z,6.57
2023-03-22T02:08:41.060Z,6.55
2023-03-22T02:12:03.463Z,6.48
2023-03-22T02:15:20.286Z,6.39
2023-03-22T02:19:09.856Z,6.31
2023-03-22T02:22:42.088Z,6.28
2023-03-22T02:26:31.035Z,6.16
2023-03-22T02:29:46.138Z,5.92
2023-03-22T02:33:23.621Z,5.85
2023-03-22T02:37:01.900Z,5.86
2023-03-22T02:40:16.550Z,5.80
2023-03-22T02:43:34.591Z,5.71
2023-03-22T02:46:46.045Z,5.61
2023-03-22T02:50:01.110Z,5.55
2023-03-22T02:53:14.872Z,5.54
2023-03-22T02:56:28.887Z,5.58
2023-03-22T02:59:38.785Z,5.70
2023-03-22T03:02:50.170Z,5.77
2023-03-22T03:06:00.369Z,5.77
2023-03-22T03:09:06.160Z,5.78
2023-03-22T03:12:19.484Z,5.81
2023-03-22T03:15:25.979Z,5.86
2023-03-22T03:18:45.785Z,5.95
2023-03-22T03:22:04.284Z,6.02
2023-03-22T03:25:22.914Z,6.12
2023-03-22T03:28:39.844Z,6.19
2023-03-22T03:31:51.635Z,6.26
2023-03-22T03:35:03.599Z,6.30
2023-03-22T03:38:14.786Z,6.32
2023-03-22T03:41:24.006Z,6.36
2023-03-22T03:44:31.954Z,6.39
2023-03-22T03:47:38.217Z,6.41
2023-03-22T03:50:42.774Z,6.46
2023-03-22T03:53:48.498Z,6.52
2023-03-22T03:56:52.313Z,6.57
2023-03-22T03:59:57.681Z,6.56
2023-03-22T04:03:17.686Z,6.46
2023-03-22T04:06:36.096Z,6.37
2023-03-22T04:09:45.970Z,6.36
2023-03-22T04:12:57.800Z,6.41
2023-03-22T04:16:03.673Z,6.49
2023-03-22T04:19:11.878Z,6.54
2023-03-22T04:22:18.463Z,6.57
2023-03-22T04:25:23.095Z,6.57
2023-03-22T04:28:38.058Z,6.60
2023-03-22T04:31:44.519Z,6.60
2023-03-22T04:34:58.537Z,6.60
2023-03-22T04:38:03.032Z,6.62
2023-03-22T04:41:08.690Z,6.63
2023-03-22T04:44:18.067Z,6.65
2023-03-22T04:47:27.830Z,6.66
2023-03-22T04:50:31.954Z,6.68
2023-03-22T04:53:39.816Z,6.66
2023-03-22T04:56:45.326Z,6.67
2023-03-22T04:59:50.792Z,6.70
2023-03-22T05:02:56.568Z,6.72
2023-03-22T05:06:11.232Z,6.74
2023-03-22T05:09:27.119Z,6.77
2023-03-22T05:12:31.944Z,6.77
2023-03-22T05:15:44.472Z,6.79
2023-03-22T05:18:54.442Z,6.81
2023-03-22T05:22:02.103Z,6.86
2023-03-22T05:25:24.702Z,6.91
2023-03-22T05:28:29.041Z,6.94
2023-03-22T05:31:53.757Z,6.94
2023-03-22T05:35:03.676Z,7.00
2023-03-22T05:38:14.637Z,7.04
2023-03-22T05:41:24.344Z,7.05
2023-03-22T05:44:28.599Z,7.09
2023-03-22T05:47:43.329Z,7.13
2023-03-22T05:50:55.484Z,7.20
2023-03-22T05:53:59.587Z,7.22
2023-03-22T05:57:11.074Z,7.28
2023-03-22T06:00:18.249Z,7.33
2023-03-22T06:03:41.822Z,7.40
2023-03-22T06:06:55.065Z,7.50
2023-03-22T06:10:15.484Z,7.55
2023-03-22T06:13:20.197Z,7.64
2023-03-22T06:16:24.669Z,7.69
2023-03-22T06:19:29.407Z,7.71
2023-03-22T06:22:34.900Z,7.74
2023-03-22T06:25:39.172Z,7.78
2023-03-22T06:28:43.090Z,7.81
2023-03-22T06:31:49.163Z,7.92
2023-03-22T06:34:52.746Z,8.05
2023-03-22T06:38:00.147Z,8.14
2023-03-22T06:41:04.478Z,8.20
2023-03-22T06:44:08.529Z,8.23
2023-03-22T06:47:27.576Z,8.24
2023-03-22T06:51:04.987Z,8.25
2023-03-22T06:54:14.866Z,8.21
2023-03-22T06:57:18.995Z,8.15
2023-03-22T07:00:23.320Z,8.08
2023-03-22T07:03:27.382Z,7.99
2023-03-22T07:06:34.847Z,7.91
2023-03-22T07:09:41.949Z,7.84
2023-03-22T07:12:45.798Z,7.86
2023-03-22T07:15:57.651Z,8.01
2023-03-22T07:19:31.316Z,8.15
2023-03-22T07:22:37.964Z,8.29
2023-03-22T07:25:43.236Z,8.43
2023-03-22T07:29:01.828Z,8.52
2023-03-22T07:32:09.042Z,8.62
2023-03-22T07:35:30.414Z,8.81
2023-03-22T07:38:34.523Z,9.02
2023-03-22T07:41:41.354Z,9.26
2023-03-22T07:45:06.753Z,9.36
2023-03-22T07:48:22.645Z,9.40
2023-03-22T07:51:39.392Z,9.57
2023-03-22T07:54:43.643Z,9.73
2023-03-22T07:57:48.772Z,9.89
2023-03-22T08:00:53.008Z,10.10
2023-03-22T08:04:15.690Z,10.29
2023-03-22T08:07:27.295Z,10.39
2023-03-22T08:10:32.735Z,10.39
2023-03-22T08:13:38.295Z,10.35
2023-03-22T08:16:45.051Z,10.35
2023-03-22T08:19:50.154Z,10.40
2023-03-22T08:22:59.135Z,10.53
2023-03-22T08:26:39.426Z,10.70
2023-03-22T08:29:53.173Z,10.74
2023-03-22T08:32:57.146Z,10.76
2023-03-22T08:36:12.490Z,10.79
2023-03-22T08:39:24.732Z,11.05
2023-03-22T08:42:39.431Z,11.38
2023-03-22T08:45:45.020Z,11.56
2023-03-22T08:48:53.042Z,11.63
2023-03-22T08:52:04.477Z,11.66
2023-03-22T08:55:26.837Z,11.67
2023-03-22T08:58:48.840Z,11.75
2023-03-22T09:02:11.021Z,11.76
2023-03-22T09:05:16.466Z,11.81
2023-03-22T09:08:21.367Z,11.96
2023-03-22T09:11:31.426Z,12.25
2023-03-22T09:14:35.194Z,12.42
2023-03-22T09:17:41.829Z,12.62
2023-03-22T09:20:47.459Z,12.76
2023-03-22T09:23:55.578Z,12.82
2023-03-22T09:27:05.897Z,13.01
2023-03-22T09:30:11.449Z,13.14
2023-03-22T09:33:16.593Z,13.31
2023-03-22T09:36:24.876Z,13.45
2023-03-22T09:39:28.790Z,13.64
2023-03-22T09:42:42.404Z,13.75
2023-03-22T09:45:52.798Z,13.87
2023-03-22T09:49:02.856Z,14.02
2023-03-22T09:52:15.175Z,14.15
2023-03-22T09:55:24.090Z,14.40
2023-03-22T09:58:38.020Z,14.64
2023-03-22T10:01:52.808Z,14.86
2023-03-22T10:05:13.216Z,15.01
2023-03-22T10:08:37.248Z,15.15
2023-03-22T10:11:47.905Z,15.29
2023-03-22T10:15:03.167Z,15.34
2023-03-22T10:18:14.412Z,15.22
2023-03-22T10:21:21.976Z,15.14
2023-03-22T10:24:31.341Z,15.01
2023-03-22T10:27:36.231Z,14.82
2023-03-22T10:30:43.640Z,14.64
2023-03-22T10:33:57.255Z,14.57
2023-03-22T10:37:07.460Z,14.69
2023-03-22T10:40:21.792Z,15.03
2023-03-22T10:43:33.328Z,15.31
2023-03-22T10:46:42.274Z,15.45
2023-03-22T10:49:53.130Z,15.34
2023-03-22T10:53:06.452Z,15.10
2023-03-22T10:56:16.012Z,15.03
2023-03-22T10:59:49.964Z,15.07
2023-03-22T11:02:59.313Z,15.21
2023-03-22T11:06:08.780Z,15.47
2023-03-22T11:09:18.091Z,15.75
2023-03-22T11:12:22.434Z,15.86
2023-03-22T11:15:31.153Z,16.06
2023-03-22T11:18:36.671Z,16.32
2023-03-22T11:21:44.210Z,16.67
2023-03-22T11:24:49.884Z,16.88
2023-03-22T11:27:58.085Z,16.99
2023-03-22T11:31:07.313Z,17.27
2023-03-22T11:34:19.969Z,17.37
2023-03-22T11:37:23.937Z,17.42
2023-03-22T11:40:33.031Z,17.43
2023-03-22T11:43:40.975Z,17.38
2023-03-22T11:46:55.641Z,17.26
2023-03-22T11:50:05.223Z,17.36
2023-03-22T11:53:16.568Z,17.49
2023-03-22T11:56:31.828Z,17.73
2023-03-22T11:59:40.643Z,18.08
2023-03-22T12:02:52.526Z,18.35
2023-03-22T12:05:57.297Z,18.74
2023-03-22T12:09:11.816Z,18.87
2023-03-22T12:12:23.071Z,19.05
2023-03-22T12:15:32.912Z,19.32
2023-03-22T12:18:47.405Z,19.46
2023-03-22T12:21:53.883Z,19.73
2023-03-22T12:24:57.733Z,19.99
2023-03-22T12:28:10.804Z,20.85
2023-03-22T12:31:22.642Z,23.70
2023-03-22T12:34:38.383Z,27.22
2023-03-22T12:37:45.872Z,28.66
2023-03-22T12:40:54.021Z,28.68
2023-03-22T12:44:05.348Z,29.01
2023-03-22T12:47:23.019Z,30.25
2023-03-22T12:50:36.019Z,31.12
2023-03-22T12:53:45.735Z,32.71
2023-03-22T12:56:51.764Z,33.99
2023-03-22T13:00:10.315Z,35.56
2023-03-22T13:03:28.819Z,32.60
2023-03-22T13:06:57.701Z,31.29
2023-03-22T13:10:22.871Z,30.41
2023-03-22T13:13:48.442Z,29.38
2023-03-22T13:17:00.327Z,28.40
2023-03-22T13:20:28.079Z,27.98
2023-03-22T13:23:32.091Z,29.38
2023-03-22T13:26:45.729Z,29.63
2023-03-22T13:29:53.955Z,30.22
2023-03-22T13:33:04.639Z,30.17
2023-03-22T13:36:24.965Z,31.79
2023-03-22T13:39:36.326Z,33.38
2023-03-22T13:42:42.266Z,34.55
2023-03-22T13:46:13.582Z,35.00
2023-03-22T13:49:51.274Z,33.41
2023-03-22T13:53:04.302Z,29.19
2023-03-22T13:56:12.338Z,26.83
2023-03-22T13:59:27.222Z,24.83
2023-03-22T14:02:40.875Z,23.14
2023-03-22T14:05:49.721Z,25.63
2023-03-22T14:09:04.496Z,28.71
2023-03-22T14:12:20.801Z,30.28
2023-03-22T14:15:29.822Z,28.47
2023-03-22T14:18:41.217Z,28.45
